Tuscarora, Illinois
Current Conditions -  °F | °C
As of 9:54 AM on Tuesday 21 Oct 2014 (Local Time) from KPIA Reporting Station
Clear Clear  
Wind Chill: 53°   Ceiling: Unl
Heat Index: 53°   Visibility: 10mi
Dew Point: 41°   Wind: 12mph
Humidity: 64%   Direction: 30°NNE
Pressure: 30.17"   Gusts: NA
Location:  40.6465°N, 89.6859°W
Report Text: KPIA 211454Z 03010KT 10SM CLR 12/05 A3017 RMK AO2 SLP218 T01170050 51019
Loading
Personal Weather Stations






























Interactive Weather Map
Tropical Storm Tracking
New forecast layout! Learn more

10-Day Weather Forecast

Advertisements
Track Severe Weather on mobile